Raven — WDG3535 — position and weather

sailwx.info

Track history (hours):
 
Tides and Currents Weather Stations Pressure Air Temp Water Temp Dewpoint Dewpoint Depression Visibility Wind Speed Wind Dir Waves Ship Positions

Raven

Owner: Chesapeake Marine Tours Inc, Annapolis, MD. More information available from US FCC via Universal Licensing System.

Last reported at 2017-Oct-18 23:34 UTC. Time now 2017-Oct-23 08:22 UTC.
Position N 39°17' W 076°37'.

Type: Passenger vessel. MMSI: 367527050.

Date/timePositionNaut miles runAvg speedWind from/ knotsBaromVisibWave heightAir tempDewpointWater temp
2017-Oct-18 23:34N 39°17' W 076°37'0 0.0
2017-Oct-18 23:30N 39°17' W 076°37'0 0.0
2017-Oct-18 23:00N 39°17' W 076°37'0 0.9
2017-Oct-18 22:30N 39°17' W 076°36'2 3.3
2017-Oct-18 22:00N 39°16' W 076°35'1 2.7
2017-Oct-18 21:30N 39°15' W 076°33'3 5.4
2017-Oct-18 21:00N 39°17' W 076°36'1 1.6
2017-Oct-18 20:30N 39°17' W 076°37'0 0.0
2017-Oct-18 20:00N 39°17' W 076°37'0 0.0
2017-Oct-18 19:30N 39°17' W 076°37'0 0.0
2017-Oct-18 19:00N 39°17' W 076°37'0 0.0
2017-Oct-18 18:30N 39°17' W 076°37'  
2017-Oct-11 00:01N 39°13' W 076°32'3 5.1
2017-Oct-10 23:30N 39°15' W 076°34'3 5.1
2017-Oct-10 23:00N 39°17' W 076°36'0 0.4
2017-Oct-10 22:31N 39°17' W 076°37'0 0.0
2017-Oct-10 22:01N 39°17' W 076°37'0 0.0
2017-Oct-10 21:31N 39°17' W 076°37'0 0.0
2017-Oct-10 21:01N 39°17' W 076°37'  
Track history (hours):
 
Tides and Currents Weather Stations Pressure Air Temp Water Temp Dewpoint Dewpoint Depression Visibility Wind Speed Wind Dir Waves Ship Positions

Raven

Owner: Chesapeake Marine Tours Inc, Annapolis, MD. More information available from US FCC via Universal Licensing System.

Last reported at 2017-Oct-18 23:34 UTC. Time now 2017-Oct-23 08:22 UTC.
Position N 39°17' W 076°37'.

Type: Passenger vessel. MMSI: 367527050.

Date/timePositionNaut miles runAvg speedWind from/ knotsBaromVisibWave heightAir tempDewpointWater temp
2017-Oct-18 23:34N 39°17' W 076°37'0 0.0
2017-Oct-18 23:30N 39°17' W 076°37'0 0.0
2017-Oct-18 23:00N 39°17' W 076°37'0 0.9
2017-Oct-18 22:30N 39°17' W 076°36'2 3.3
2017-Oct-18 22:00N 39°16' W 076°35'1 2.7
2017-Oct-18 21:30N 39°15' W 076°33'3 5.4
2017-Oct-18 21:00N 39°17' W 076°36'1 1.6
2017-Oct-18 20:30N 39°17' W 076°37'0 0.0
2017-Oct-18 20:00N 39°17' W 076°37'0 0.0
2017-Oct-18 19:30N 39°17' W 076°37'0 0.0
2017-Oct-18 19:00N 39°17' W 076°37'0 0.0
2017-Oct-18 18:30N 39°17' W 076°37'  
2017-Oct-11 00:01N 39°13' W 076°32'3 5.1
2017-Oct-10 23:30N 39°15' W 076°34'3 5.1
2017-Oct-10 23:00N 39°17' W 076°36'0 0.4
2017-Oct-10 22:31N 39°17' W 076°37'0 0.0
2017-Oct-10 22:01N 39°17' W 076°37'0 0.0
2017-Oct-10 21:31N 39°17' W 076°37'0 0.0
2017-Oct-10 21:01N 39°17' W 076°37'  

Dump ship's entire track history